sensor_id;sensor_type;location;lat;lon;timestamp;P1;durP1;ratioP1;P2;durP2;ratioP2
5121;SDS011;2563;52.242;7.956;2022-12-29T00:01:34;5.67;;;2.60;;
5121;SDS011;2563;52.242;7.956;2022-12-29T00:04:00;4.80;;;2.23;;
5121;SDS011;2563;52.242;7.956;2022-12-29T00:06:25;5.27;;;2.43;;
5121;SDS011;2563;52.242;7.956;2022-12-29T00:08:51;4.97;;;2.20;;
5121;SDS011;2563;52.242;7.956;2022-12-29T00:11:21;5.60;;;2.53;;
5121;SDS011;2563;52.242;7.956;2022-12-29T00:13:48;5.70;;;2.73;;
5121;SDS011;2563;52.242;7.956;2022-12-29T00:16:33;4.70;;;2.33;;
5121;SDS011;2563;52.242;7.956;2022-12-29T00:18:59;4.67;;;2.37;;
5121;SDS011;2563;52.242;7.956;2022-12-29T00:21:25;6.07;;;2.20;;
5121;SDS011;2563;52.242;7.956;2022-12-29T00:24:20;4.40;;;1.90;;
5121;SDS011;2563;52.242;7.956;2022-12-29T00:29:49;5.03;;;2.57;;
5121;SDS011;2563;52.242;7.956;2022-12-29T00:32:33;6.37;;;2.30;;
5121;SDS011;2563;52.242;7.956;2022-12-29T00:35:29;3.73;;;1.70;;
5121;SDS011;2563;52.242;7.956;2022-12-29T00:38:02;4.23;;;1.90;;
5121;SDS011;2563;52.242;7.956;2022-12-29T00:40:50;4.80;;;2.40;;
5121;SDS011;2563;52.242;7.956;2022-12-29T00:43:34;5.73;;;2.20;;
5121;SDS011;2563;52.242;7.956;2022-12-29T00:46:18;4.40;;;1.97;;
5121;SDS011;2563;52.242;7.956;2022-12-29T00:48:43;4.80;;;2.10;;
5121;SDS011;2563;52.242;7.956;2022-12-29T00:51:27;6.30;;;2.40;;
5121;SDS011;2563;52.242;7.956;2022-12-29T00:53:53;4.43;;;1.80;;
5121;SDS011;2563;52.242;7.956;2022-12-29T00:56:18;5.03;;;2.30;;
5121;SDS011;2563;52.242;7.956;2022-12-29T00:58:43;6.53;;;2.23;;
5121;SDS011;2563;52.242;7.956;2022-12-29T01:01:09;8.20;;;2.13;;
5121;SDS011;2563;52.242;7.956;2022-12-29T01:03:35;5.80;;;1.93;;
5121;SDS011;2563;52.242;7.956;2022-12-29T01:06:05;4.00;;;1.50;;
5121;SDS011;2563;52.242;7.956;2022-12-29T01:08:32;4.23;;;1.67;;
5121;SDS011;2563;52.242;7.956;2022-12-29T01:11:01;4.57;;;1.80;;
5121;SDS011;2563;52.242;7.956;2022-12-29T01:13:32;4.60;;;1.40;;
5121;SDS011;2563;52.242;7.956;2022-12-29T01:15:57;4.40;;;1.57;;
5121;SDS011;2563;52.242;7.956;2022-12-29T01:18:23;3.80;;;1.47;;
5121;SDS011;2563;52.242;7.956;2022-12-29T01:20:50;6.03;;;1.40;;
5121;SDS011;2563;52.242;7.956;2022-12-29T01:23:15;4.07;;;1.30;;
5121;SDS011;2563;52.242;7.956;2022-12-29T01:25:41;3.63;;;1.50;;
5121;SDS011;2563;52.242;7.956;2022-12-29T01:28:06;6.03;;;1.50;;
5121;SDS011;2563;52.242;7.956;2022-12-29T01:30:33;3.87;;;1.37;;
5121;SDS011;2563;52.242;7.956;2022-12-29T01:32:59;3.93;;;1.27;;
5121;SDS011;2563;52.242;7.956;2022-12-29T01:35:24;4.00;;;1.53;;
5121;SDS011;2563;52.242;7.956;2022-12-29T01:37:50;6.03;;;1.60;;
5121;SDS011;2563;52.242;7.956;2022-12-29T01:40:15;4.03;;;1.67;;
5121;SDS011;2563;52.242;7.956;2022-12-29T01:42:41;3.23;;;1.20;;
5121;SDS011;2563;52.242;7.956;2022-12-29T01:45:10;3.67;;;1.20;;
5121;SDS011;2563;52.242;7.956;2022-12-29T01:50:19;4.03;;;1.47;;
5121;SDS011;2563;52.242;7.956;2022-12-29T01:52:51;4.20;;;1.33;;
5121;SDS011;2563;52.242;7.956;2022-12-29T01:55:21;4.13;;;1.53;;
5121;SDS011;2563;52.242;7.956;2022-12-29T01:57:49;4.43;;;1.60;;
5121;SDS011;2563;52.242;7.956;2022-12-29T02:00:17;3.90;;;1.80;;
5121;SDS011;2563;52.242;7.956;2022-12-29T02:02:47;4.47;;;2.00;;
5121;SDS011;2563;52.242;7.956;2022-12-29T02:08:06;4.07;;;1.90;;
5121;SDS011;2563;52.242;7.956;2022-12-29T02:10:34;4.27;;;1.80;;
5121;SDS011;2563;52.242;7.956;2022-12-29T02:13:01;3.53;;;1.60;;
5121;SDS011;2563;52.242;7.956;2022-12-29T02:29:27;4.50;;;2.00;;
5121;SDS011;2563;52.242;7.956;2022-12-29T02:32:01;4.03;;;1.77;;
5121;SDS011;2563;52.242;7.956;2022-12-29T02:48:31;4.10;;;1.67;;
5121;SDS011;2563;52.242;7.956;2022-12-29T02:51:25;4.00;;;1.50;;
5121;SDS011;2563;52.242;7.956;2022-12-29T02:54:11;3.33;;;1.43;;
5121;SDS011;2563;52.242;7.956;2022-12-29T02:56:55;3.73;;;1.50;;
5121;SDS011;2563;52.242;7.956;2022-12-29T02:59:20;3.60;;;1.20;;
5121;SDS011;2563;52.242;7.956;2022-12-29T03:16:23;2.97;;;0.70;;
5121;SDS011;2563;52.242;7.956;2022-12-29T03:21:42;3.00;;;0.90;;
5121;SDS011;2563;52.242;7.956;2022-12-29T03:24:31;4.67;;;0.80;;
5121;SDS011;2563;52.242;7.956;2022-12-29T03:27:01;11.07;;;1.00;;
5121;SDS011;2563;52.242;7.956;2022-12-29T03:29:30;3.17;;;0.93;;
5121;SDS011;2563;52.242;7.956;2022-12-29T03:32:01;3.00;;;0.67;;
5121;SDS011;2563;52.242;7.956;2022-12-29T03:34:29;3.10;;;0.80;;
5121;SDS011;2563;52.242;7.956;2022-12-29T03:37:07;2.70;;;0.70;;
5121;SDS011;2563;52.242;7.956;2022-12-29T03:39:39;2.70;;;0.70;;
5121;SDS011;2563;52.242;7.956;2022-12-29T03:42:08;3.47;;;0.90;;
5121;SDS011;2563;52.242;7.956;2022-12-29T03:44:37;2.70;;;0.60;;
5121;SDS011;2563;52.242;7.956;2022-12-29T03:47:06;2.80;;;0.80;;
5121;SDS011;2563;52.242;7.956;2022-12-29T03:49:32;2.77;;;0.60;;
5121;SDS011;2563;52.242;7.956;2022-12-29T03:51:58;2.70;;;0.70;;
5121;SDS011;2563;52.242;7.956;2022-12-29T03:54:24;3.33;;;0.70;;
5121;SDS011;2563;52.242;7.956;2022-12-29T03:56:49;2.60;;;0.60;;
5121;SDS011;2563;52.242;7.956;2022-12-29T03:59:15;2.87;;;0.70;;
5121;SDS011;2563;52.242;7.956;2022-12-29T04:01:40;2.50;;;0.60;;
5121;SDS011;2563;52.242;7.956;2022-12-29T04:04:05;5.90;;;0.70;;
5121;SDS011;2563;52.242;7.956;2022-12-29T04:06:31;2.83;;;0.70;;
5121;SDS011;2563;52.242;7.956;2022-12-29T04:08:56;2.63;;;0.70;;
5121;SDS011;2563;52.242;7.956;2022-12-29T04:11:22;4.10;;;0.70;;
5121;SDS011;2563;52.242;7.956;2022-12-29T04:13:47;3.17;;;0.57;;
5121;SDS011;2563;52.242;7.956;2022-12-29T04:16:13;4.33;;;0.83;;
5121;SDS011;2563;52.242;7.956;2022-12-29T04:18:38;3.27;;;0.73;;
5121;SDS011;2563;52.242;7.956;2022-12-29T04:21:04;2.60;;;0.70;;
5121;SDS011;2563;52.242;7.956;2022-12-29T04:23:31;2.80;;;0.90;;
5121;SDS011;2563;52.242;7.956;2022-12-29T04:25:58;2.77;;;0.70;;
5121;SDS011;2563;52.242;7.956;2022-12-29T04:28:24;3.27;;;0.70;;
5121;SDS011;2563;52.242;7.956;2022-12-29T04:30:49;3.17;;;0.70;;
5121;SDS011;2563;52.242;7.956;2022-12-29T04:33:15;3.00;;;0.80;;
5121;SDS011;2563;52.242;7.956;2022-12-29T04:35:41;2.70;;;0.77;;
5121;SDS011;2563;52.242;7.956;2022-12-29T04:38:07;5.90;;;0.90;;
5121;SDS011;2563;52.242;7.956;2022-12-29T04:40:33;2.90;;;0.63;;
5121;SDS011;2563;52.242;7.956;2022-12-29T04:42:59;4.53;;;1.00;;
5121;SDS011;2563;52.242;7.956;2022-12-29T04:45:24;3.83;;;0.80;;
5121;SDS011;2563;52.242;7.956;2022-12-29T04:47:49;3.83;;;1.00;;
5121;SDS011;2563;52.242;7.956;2022-12-29T04:50:15;2.87;;;0.80;;
5121;SDS011;2563;52.242;7.956;2022-12-29T04:52:40;3.73;;;0.77;;
5121;SDS011;2563;52.242;7.956;2022-12-29T04:55:06;2.63;;;0.83;;
5121;SDS011;2563;52.242;7.956;2022-12-29T04:57:31;3.20;;;0.83;;
5121;SDS011;2563;52.242;7.956;2022-12-29T04:59:57;3.27;;;0.80;;
5121;SDS011;2563;52.242;7.956;2022-12-29T05:02:22;2.97;;;0.80;;
5121;SDS011;2563;52.242;7.956;2022-12-29T05:04:48;5.50;;;0.70;;
5121;SDS011;2563;52.242;7.956;2022-12-29T05:07:13;3.43;;;0.90;;
5121;SDS011;2563;52.242;7.956;2022-12-29T05:09:39;2.60;;;0.67;;
5121;SDS011;2563;52.242;7.956;2022-12-29T05:12:04;2.40;;;0.70;;
5121;SDS011;2563;52.242;7.956;2022-12-29T05:14:30;2.60;;;0.70;;
5121;SDS011;2563;52.242;7.956;2022-12-29T05:16:57;3.80;;;1.00;;
5121;SDS011;2563;52.242;7.956;2022-12-29T05:19:22;2.53;;;0.77;;
5121;SDS011;2563;52.242;7.956;2022-12-29T05:21:48;2.70;;;0.70;;
5121;SDS011;2563;52.242;7.956;2022-12-29T05:24:13;4.83;;;0.80;;
5121;SDS011;2563;52.242;7.956;2022-12-29T05:26:40;2.60;;;0.70;;
5121;SDS011;2563;52.242;7.956;2022-12-29T05:29:06;2.53;;;0.70;;
5121;SDS011;2563;52.242;7.956;2022-12-29T05:31:31;2.50;;;0.67;;
5121;SDS011;2563;52.242;7.956;2022-12-29T05:33:57;2.87;;;0.80;;
5121;SDS011;2563;52.242;7.956;2022-12-29T05:36:22;3.03;;;0.57;;
5121;SDS011;2563;52.242;7.956;2022-12-29T05:38:48;2.40;;;0.50;;
5121;SDS011;2563;52.242;7.956;2022-12-29T05:41:13;5.90;;;0.67;;
5121;SDS011;2563;52.242;7.956;2022-12-29T05:43:38;3.37;;;0.60;;
5121;SDS011;2563;52.242;7.956;2022-12-29T05:46:04;2.30;;;0.50;;
5121;SDS011;2563;52.242;7.956;2022-12-29T05:48:29;3.27;;;0.50;;
5121;SDS011;2563;52.242;7.956;2022-12-29T05:50:55;2.20;;;0.60;;
5121;SDS011;2563;52.242;7.956;2022-12-29T05:53:20;2.43;;;0.50;;
5121;SDS011;2563;52.242;7.956;2022-12-29T05:55:46;6.63;;;0.63;;
5121;SDS011;2563;52.242;7.956;2022-12-29T05:58:12;4.30;;;0.60;;
5121;SDS011;2563;52.242;7.956;2022-12-29T06:00:38;3.90;;;0.40;;
5121;SDS011;2563;52.242;7.956;2022-12-29T06:03:03;2.10;;;0.40;;
5121;SDS011;2563;52.242;7.956;2022-12-29T06:05:29;2.20;;;0.40;;
5121;SDS011;2563;52.242;7.956;2022-12-29T06:07:54;3.27;;;0.50;;
5121;SDS011;2563;52.242;7.956;2022-12-29T06:10:20;2.30;;;0.40;;
5121;SDS011;2563;52.242;7.956;2022-12-29T06:12:45;3.03;;;0.40;;
5121;SDS011;2563;52.242;7.956;2022-12-29T06:15:11;4.10;;;0.40;;
5121;SDS011;2563;52.242;7.956;2022-12-29T06:17:37;3.13;;;0.50;;
5121;SDS011;2563;52.242;7.956;2022-12-29T06:20:02;5.80;;;0.50;;
5121;SDS011;2563;52.242;7.956;2022-12-29T06:22:28;3.03;;;0.50;;
5121;SDS011;2563;52.242;7.956;2022-12-29T06:24:53;2.30;;;0.40;;
5121;SDS011;2563;52.242;7.956;2022-12-29T06:27:19;2.03;;;0.40;;
5121;SDS011;2563;52.242;7.956;2022-12-29T06:29:44;2.63;;;0.47;;
5121;SDS011;2563;52.242;7.956;2022-12-29T06:32:10;2.10;;;0.40;;
5121;SDS011;2563;52.242;7.956;2022-12-29T06:34:35;3.20;;;0.53;;
5121;SDS011;2563;52.242;7.956;2022-12-29T06:37:00;6.90;;;0.70;;
5121;SDS011;2563;52.242;7.956;2022-12-29T06:39:26;3.40;;;0.60;;
5121;SDS011;2563;52.242;7.956;2022-12-29T06:41:52;2.80;;;0.60;;
5121;SDS011;2563;52.242;7.956;2022-12-29T06:44:18;3.97;;;0.70;;
5121;SDS011;2563;52.242;7.956;2022-12-29T06:46:44;3.20;;;0.50;;
5121;SDS011;2563;52.242;7.956;2022-12-29T06:49:10;4.30;;;0.60;;
5121;SDS011;2563;52.242;7.956;2022-12-29T06:51:35;3.60;;;0.80;;
5121;SDS011;2563;52.242;7.956;2022-12-29T06:54:00;5.23;;;0.80;;
5121;SDS011;2563;52.242;7.956;2022-12-29T06:56:26;5.73;;;0.90;;
5121;SDS011;2563;52.242;7.956;2022-12-29T06:58:51;5.83;;;0.60;;
5121;SDS011;2563;52.242;7.956;2022-12-29T07:01:16;2.30;;;0.47;;
5121;SDS011;2563;52.242;7.956;2022-12-29T07:03:42;2.97;;;0.60;;
5121;SDS011;2563;52.242;7.956;2022-12-29T07:06:08;4.30;;;0.87;;
5121;SDS011;2563;52.242;7.956;2022-12-29T07:08:33;10.33;;;0.70;;
5121;SDS011;2563;52.242;7.956;2022-12-29T07:10:58;3.23;;;0.70;;
5121;SDS011;2563;52.242;7.956;2022-12-29T07:13:24;5.43;;;0.70;;
5121;SDS011;2563;52.242;7.956;2022-12-29T07:15:49;3.50;;;0.70;;
5121;SDS011;2563;52.242;7.956;2022-12-29T07:18:14;6.20;;;0.70;;
5121;SDS011;2563;52.242;7.956;2022-12-29T07:20:40;10.03;;;0.77;;
5121;SDS011;2563;52.242;7.956;2022-12-29T07:23:05;3.20;;;0.70;;
5121;SDS011;2563;52.242;7.956;2022-12-29T07:25:30;2.47;;;0.43;;
5121;SDS011;2563;52.242;7.956;2022-12-29T07:27:56;6.37;;;0.90;;
5121;SDS011;2563;52.242;7.956;2022-12-29T07:30:21;4.90;;;1.10;;
5121;SDS011;2563;52.242;7.956;2022-12-29T07:32:47;10.17;;;1.40;;
5121;SDS011;2563;52.242;7.956;2022-12-29T07:35:12;6.10;;;0.80;;
5121;SDS011;2563;52.242;7.956;2022-12-29T07:37:38;3.60;;;0.90;;
5121;SDS011;2563;52.242;7.956;2022-12-29T07:40:03;4.23;;;0.70;;
5121;SDS011;2563;52.242;7.956;2022-12-29T07:42:29;5.50;;;0.80;;
5121;SDS011;2563;52.242;7.956;2022-12-29T07:44:55;5.30;;;0.70;;
5121;SDS011;2563;52.242;7.956;2022-12-29T07:47:21;7.63;;;0.90;;
5121;SDS011;2563;52.242;7.956;2022-12-29T07:49:46;4.17;;;1.07;;
5121;SDS011;2563;52.242;7.956;2022-12-29T07:52:12;4.53;;;1.10;;
5121;SDS011;2563;52.242;7.956;2022-12-29T07:54:37;5.60;;;0.93;;
5121;SDS011;2563;52.242;7.956;2022-12-29T07:57:03;7.00;;;1.20;;
5121;SDS011;2563;52.242;7.956;2022-12-29T07:59:29;4.20;;;1.17;;
5121;SDS011;2563;52.242;7.956;2022-12-29T08:01:55;3.17;;;0.80;;
5121;SDS011;2563;52.242;7.956;2022-12-29T08:04:20;7.97;;;0.70;;
5121;SDS011;2563;52.242;7.956;2022-12-29T08:06:46;4.83;;;0.67;;
5121;SDS011;2563;52.242;7.956;2022-12-29T08:09:11;3.07;;;0.83;;
5121;SDS011;2563;52.242;7.956;2022-12-29T08:11:37;3.07;;;0.73;;
5121;SDS011;2563;52.242;7.956;2022-12-29T08:14:02;6.50;;;0.80;;
5121;SDS011;2563;52.242;7.956;2022-12-29T08:16:28;3.63;;;0.70;;
5121;SDS011;2563;52.242;7.956;2022-12-29T08:18:54;8.10;;;0.87;;
5121;SDS011;2563;52.242;7.956;2022-12-29T08:21:19;7.40;;;1.00;;
5121;SDS011;2563;52.242;7.956;2022-12-29T08:23:44;4.97;;;1.00;;
5121;SDS011;2563;52.242;7.956;2022-12-29T08:26:10;6.37;;;1.13;;
5121;SDS011;2563;52.242;7.956;2022-12-29T08:28:36;5.37;;;1.20;;
5121;SDS011;2563;52.242;7.956;2022-12-29T08:31:01;10.70;;;0.90;;
5121;SDS011;2563;52.242;7.956;2022-12-29T08:33:28;4.70;;;0.80;;
5121;SDS011;2563;52.242;7.956;2022-12-29T08:36:03;9.43;;;1.00;;
5121;SDS011;2563;52.242;7.956;2022-12-29T08:38:30;5.03;;;1.37;;
5121;SDS011;2563;52.242;7.956;2022-12-29T08:40:56;14.53;;;1.73;;
5121;SDS011;2563;52.242;7.956;2022-12-29T08:43:22;4.20;;;0.70;;
5121;SDS011;2563;52.242;7.956;2022-12-29T08:45:48;9.17;;;0.97;;
5121;SDS011;2563;52.242;7.956;2022-12-29T08:48:14;6.33;;;0.93;;
5121;SDS011;2563;52.242;7.956;2022-12-29T08:50:43;4.30;;;0.70;;
5121;SDS011;2563;52.242;7.956;2022-12-29T08:53:09;3.37;;;0.90;;
5121;SDS011;2563;52.242;7.956;2022-12-29T08:55:34;6.97;;;1.00;;
5121;SDS011;2563;52.242;7.956;2022-12-29T08:58:00;5.30;;;0.90;;
5121;SDS011;2563;52.242;7.956;2022-12-29T09:00:25;4.90;;;0.73;;
5121;SDS011;2563;52.242;7.956;2022-12-29T09:02:51;5.10;;;1.03;;
5121;SDS011;2563;52.242;7.956;2022-12-29T09:05:16;5.37;;;0.90;;
5121;SDS011;2563;52.242;7.956;2022-12-29T09:07:42;3.90;;;0.70;;
5121;SDS011;2563;52.242;7.956;2022-12-29T09:10:07;8.03;;;1.10;;
5121;SDS011;2563;52.242;7.956;2022-12-29T09:12:33;7.17;;;1.37;;
5121;SDS011;2563;52.242;7.956;2022-12-29T09:14:58;9.63;;;1.00;;
5121;SDS011;2563;52.242;7.956;2022-12-29T09:17:23;4.17;;;0.90;;
5121;SDS011;2563;52.242;7.956;2022-12-29T09:20:08;7.60;;;0.80;;
5121;SDS011;2563;52.242;7.956;2022-12-29T09:22:35;4.60;;;1.00;;
5121;SDS011;2563;52.242;7.956;2022-12-29T09:25:01;6.33;;;0.70;;
5121;SDS011;2563;52.242;7.956;2022-12-29T09:27:26;10.83;;;0.90;;
5121;SDS011;2563;52.242;7.956;2022-12-29T09:29:51;6.37;;;1.27;;
5121;SDS011;2563;52.242;7.956;2022-12-29T09:32:17;6.27;;;0.80;;
5121;SDS011;2563;52.242;7.956;2022-12-29T09:34:42;3.40;;;1.00;;
5121;SDS011;2563;52.242;7.956;2022-12-29T09:37:07;5.53;;;1.10;;
5121;SDS011;2563;52.242;7.956;2022-12-29T09:39:33;5.13;;;1.47;;
5121;SDS011;2563;52.242;7.956;2022-12-29T09:47:40;3.13;;;0.90;;
5121;SDS011;2563;52.242;7.956;2022-12-29T09:52:50;8.33;;;1.13;;
5121;SDS011;2563;52.242;7.956;2022-12-29T09:55:24;7.23;;;1.70;;
5121;SDS011;2563;52.242;7.956;2022-12-29T09:57:56;5.13;;;1.10;;
5121;SDS011;2563;52.242;7.956;2022-12-29T10:00:36;7.07;;;1.27;;
5121;SDS011;2563;52.242;7.956;2022-12-29T10:03:06;4.40;;;1.00;;
5121;SDS011;2563;52.242;7.956;2022-12-29T10:05:44;4.73;;;1.10;;
5121;SDS011;2563;52.242;7.956;2022-12-29T10:10:53;5.40;;;1.00;;
5121;SDS011;2563;52.242;7.956;2022-12-29T10:22:17;4.93;;;0.90;;
5121;SDS011;2563;52.242;7.956;2022-12-29T10:24:48;7.33;;;1.03;;
5121;SDS011;2563;52.242;7.956;2022-12-29T10:27:16;5.93;;;1.20;;
5121;SDS011;2563;52.242;7.956;2022-12-29T10:29:44;6.00;;;0.97;;
5121;SDS011;2563;52.242;7.956;2022-12-29T10:32:36;4.70;;;1.33;;
5121;SDS011;2563;52.242;7.956;2022-12-29T10:35:05;5.07;;;0.90;;
5121;SDS011;2563;52.242;7.956;2022-12-29T10:37:41;10.03;;;1.63;;
5121;SDS011;2563;52.242;7.956;2022-12-29T10:40:15;10.03;;;1.57;;
5121;SDS011;2563;52.242;7.956;2022-12-29T10:42:53;7.80;;;0.77;;
5121;SDS011;2563;52.242;7.956;2022-12-29T10:45:21;8.73;;;0.80;;
5121;SDS011;2563;52.242;7.956;2022-12-29T10:47:55;5.93;;;1.43;;
5121;SDS011;2563;52.242;7.956;2022-12-29T10:50:26;9.07;;;1.40;;
5121;SDS011;2563;52.242;7.956;2022-12-29T10:52:54;4.83;;;1.00;;
5121;SDS011;2563;52.242;7.956;2022-12-29T10:55:27;7.53;;;1.17;;
5121;SDS011;2563;52.242;7.956;2022-12-29T10:58:01;5.10;;;1.27;;
5121;SDS011;2563;52.242;7.956;2022-12-29T11:00:30;5.73;;;1.10;;
5121;SDS011;2563;52.242;7.956;2022-12-29T11:08:19;5.57;;;1.00;;
5121;SDS011;2563;52.242;7.956;2022-12-29T11:11:03;8.23;;;3.10;;
5121;SDS011;2563;52.242;7.956;2022-12-29T11:13:51;6.17;;;1.13;;
5121;SDS011;2563;52.242;7.956;2022-12-29T11:16:32;6.23;;;1.20;;
5121;SDS011;2563;52.242;7.956;2022-12-29T11:18:59;8.00;;;1.20;;
5121;SDS011;2563;52.242;7.956;2022-12-29T11:29:40;7.30;;;1.33;;
5121;SDS011;2563;52.242;7.956;2022-12-29T11:32:18;11.50;;;1.47;;
5121;SDS011;2563;52.242;7.956;2022-12-29T11:34:44;5.10;;;1.00;;
5121;SDS011;2563;52.242;7.956;2022-12-29T11:45:15;8.80;;;1.50;;
5121;SDS011;2563;52.242;7.956;2022-12-29T11:47:43;5.07;;;1.03;;
5121;SDS011;2563;52.242;7.956;2022-12-29T11:50:16;6.30;;;1.90;;
5121;SDS011;2563;52.242;7.956;2022-12-29T11:52:45;7.30;;;1.90;;
5121;SDS011;2563;52.242;7.956;2022-12-29T11:55:23;7.93;;;1.70;;
5121;SDS011;2563;52.242;7.956;2022-12-29T11:57:50;5.40;;;1.33;;
5121;SDS011;2563;52.242;7.956;2022-12-29T12:00:20;6.57;;;1.90;;
5121;SDS011;2563;52.242;7.956;2022-12-29T12:05:41;9.07;;;1.77;;
5121;SDS011;2563;52.242;7.956;2022-12-29T12:11:04;5.97;;;1.20;;
5121;SDS011;2563;52.242;7.956;2022-12-29T12:13:35;8.00;;;2.13;;
5121;SDS011;2563;52.242;7.956;2022-12-29T12:16:09;5.47;;;0.80;;
5121;SDS011;2563;52.242;7.956;2022-12-29T12:18:41;3.00;;;0.90;;
5121;SDS011;2563;52.242;7.956;2022-12-29T12:21:18;10.50;;;1.60;;
5121;SDS011;2563;52.242;7.956;2022-12-29T12:26:28;5.40;;;0.90;;
5121;SDS011;2563;52.242;7.956;2022-12-29T12:29:01;6.17;;;1.27;;
5121;SDS011;2563;52.242;7.956;2022-12-29T12:31:43;6.40;;;1.10;;
5121;SDS011;2563;52.242;7.956;2022-12-29T12:34:16;3.10;;;0.90;;
5121;SDS011;2563;52.242;7.956;2022-12-29T12:56:03;7.10;;;1.00;;
5121;SDS011;2563;52.242;7.956;2022-12-29T13:06:53;4.83;;;1.20;;
5121;SDS011;2563;52.242;7.956;2022-12-29T13:17:33;6.60;;;1.10;;
5121;SDS011;2563;52.242;7.956;2022-12-29T13:22:40;5.93;;;1.97;;
5121;SDS011;2563;52.242;7.956;2022-12-29T13:36:22;8.23;;;1.37;;
5121;SDS011;2563;52.242;7.956;2022-12-29T13:38:56;7.70;;;1.47;;
5121;SDS011;2563;52.242;7.956;2022-12-29T13:43:57;6.70;;;1.37;;
5121;SDS011;2563;52.242;7.956;2022-12-29T13:46:28;9.30;;;1.73;;
5121;SDS011;2563;52.242;7.956;2022-12-29T13:48:59;5.67;;;1.50;;
5121;SDS011;2563;52.242;7.956;2022-12-29T13:51:30;10.23;;;1.37;;
5121;SDS011;2563;52.242;7.956;2022-12-29T13:54:05;4.90;;;1.60;;
5121;SDS011;2563;52.242;7.956;2022-12-29T13:59:56;10.73;;;2.07;;
5121;SDS011;2563;52.242;7.956;2022-12-29T14:02:31;5.80;;;1.53;;
5121;SDS011;2563;52.242;7.956;2022-12-29T14:07:45;8.40;;;1.00;;
5121;SDS011;2563;52.242;7.956;2022-12-29T14:12:58;6.33;;;1.13;;
5121;SDS011;2563;52.242;7.956;2022-12-29T14:15:27;5.63;;;1.10;;
5121;SDS011;2563;52.242;7.956;2022-12-29T14:18:10;6.03;;;1.10;;
5121;SDS011;2563;52.242;7.956;2022-12-29T14:20:46;4.13;;;1.03;;
5121;SDS011;2563;52.242;7.956;2022-12-29T14:28:40;5.63;;;1.50;;
5121;SDS011;2563;52.242;7.956;2022-12-29T14:33:41;6.23;;;1.30;;
5121;SDS011;2563;52.242;7.956;2022-12-29T14:36:33;5.60;;;1.87;;
5121;SDS011;2563;52.242;7.956;2022-12-29T14:38:59;7.20;;;2.07;;
5121;SDS011;2563;52.242;7.956;2022-12-29T14:41:32;7.73;;;1.90;;
5121;SDS011;2563;52.242;7.956;2022-12-29T14:46:46;10.07;;;1.83;;
5121;SDS011;2563;52.242;7.956;2022-12-29T14:49:21;5.40;;;1.60;;
5121;SDS011;2563;52.242;7.956;2022-12-29T14:51:52;9.30;;;1.47;;
5121;SDS011;2563;52.242;7.956;2022-12-29T14:57:04;6.77;;;1.80;;
5121;SDS011;2563;52.242;7.956;2022-12-29T14:59:33;8.90;;;2.23;;
5121;SDS011;2563;52.242;7.956;2022-12-29T15:02:01;7.77;;;2.03;;
5121;SDS011;2563;52.242;7.956;2022-12-29T15:04:33;14.03;;;4.03;;
5121;SDS011;2563;52.242;7.956;2022-12-29T15:07:00;16.70;;;2.00;;
5121;SDS011;2563;52.242;7.956;2022-12-29T15:12:11;5.87;;;2.00;;
5121;SDS011;2563;52.242;7.956;2022-12-29T15:14:58;6.30;;;2.20;;
5121;SDS011;2563;52.242;7.956;2022-12-29T15:17:28;5.90;;;1.43;;
5121;SDS011;2563;52.242;7.956;2022-12-29T15:19:59;5.10;;;1.60;;
5121;SDS011;2563;52.242;7.956;2022-12-29T15:22:26;9.43;;;1.80;;
5121;SDS011;2563;52.242;7.956;2022-12-29T15:24:53;11.50;;;2.17;;
5121;SDS011;2563;52.242;7.956;2022-12-29T15:27:20;7.17;;;1.67;;
5121;SDS011;2563;52.242;7.956;2022-12-29T15:29:48;10.40;;;2.27;;
5121;SDS011;2563;52.242;7.956;2022-12-29T15:32:22;5.73;;;1.30;;
5121;SDS011;2563;52.242;7.956;2022-12-29T15:34:58;6.43;;;1.23;;
5121;SDS011;2563;52.242;7.956;2022-12-29T15:37:32;4.70;;;1.50;;
5121;SDS011;2563;52.242;7.956;2022-12-29T15:40:00;4.67;;;1.53;;
5121;SDS011;2563;52.242;7.956;2022-12-29T15:42:32;3.90;;;1.30;;
5121;SDS011;2563;52.242;7.956;2022-12-29T15:45:05;8.80;;;1.70;;
5121;SDS011;2563;52.242;7.956;2022-12-29T15:47:32;5.50;;;1.67;;
5121;SDS011;2563;52.242;7.956;2022-12-29T15:50:03;8.00;;;1.73;;
5121;SDS011;2563;52.242;7.956;2022-12-29T15:52:34;8.73;;;1.70;;
5121;SDS011;2563;52.242;7.956;2022-12-29T15:55:03;7.90;;;1.80;;
5121;SDS011;2563;52.242;7.956;2022-12-29T15:57:30;6.23;;;1.83;;
5121;SDS011;2563;52.242;7.956;2022-12-29T16:00:02;7.70;;;1.23;;
5121;SDS011;2563;52.242;7.956;2022-12-29T16:02:29;5.40;;;1.50;;
5121;SDS011;2563;52.242;7.956;2022-12-29T16:04:55;7.90;;;1.37;;
5121;SDS011;2563;52.242;7.956;2022-12-29T16:07:30;5.93;;;1.20;;
5121;SDS011;2563;52.242;7.956;2022-12-29T16:09:59;3.47;;;0.80;;
5121;SDS011;2563;52.242;7.956;2022-12-29T16:12:33;3.50;;;0.83;;
5121;SDS011;2563;52.242;7.956;2022-12-29T16:15:02;8.17;;;1.10;;
5121;SDS011;2563;52.242;7.956;2022-12-29T16:17:30;6.60;;;1.20;;
5121;SDS011;2563;52.242;7.956;2022-12-29T16:20:01;4.50;;;1.27;;
5121;SDS011;2563;52.242;7.956;2022-12-29T16:22:39;5.40;;;1.87;;
5121;SDS011;2563;52.242;7.956;2022-12-29T16:25:20;4.00;;;1.30;;
5121;SDS011;2563;52.242;7.956;2022-12-29T16:27:49;2.80;;;0.73;;
5121;SDS011;2563;52.242;7.956;2022-12-29T16:32:51;4.13;;;1.40;;
5121;SDS011;2563;52.242;7.956;2022-12-29T16:37:47;5.30;;;1.27;;
5121;SDS011;2563;52.242;7.956;2022-12-29T16:40:31;10.40;;;2.50;;
5121;SDS011;2563;52.242;7.956;2022-12-29T16:43:00;9.23;;;2.30;;
5121;SDS011;2563;52.242;7.956;2022-12-29T16:50:38;7.50;;;1.20;;
5121;SDS011;2563;52.242;7.956;2022-12-29T16:53:06;4.20;;;1.13;;
5121;SDS011;2563;52.242;7.956;2022-12-29T16:55:52;4.40;;;1.50;;
5121;SDS011;2563;52.242;7.956;2022-12-29T16:58:22;4.73;;;1.40;;
5121;SDS011;2563;52.242;7.956;2022-12-29T17:01:00;5.03;;;1.20;;
5121;SDS011;2563;52.242;7.956;2022-12-29T17:04:13;6.93;;;1.50;;
5121;SDS011;2563;52.242;7.956;2022-12-29T17:06:18;4.77;;;1.40;;
5121;SDS011;2563;52.242;7.956;2022-12-29T17:08:45;4.47;;;1.20;;
5121;SDS011;2563;52.242;7.956;2022-12-29T17:11:19;8.10;;;1.27;;
5121;SDS011;2563;52.242;7.956;2022-12-29T17:14:11;8.17;;;1.30;;
5121;SDS011;2563;52.242;7.956;2022-12-29T17:16:56;3.60;;;1.03;;
5121;SDS011;2563;52.242;7.956;2022-12-29T17:19:28;5.63;;;1.13;;
5121;SDS011;2563;52.242;7.956;2022-12-29T17:21:56;6.50;;;1.47;;
5121;SDS011;2563;52.242;7.956;2022-12-29T17:24:21;3.53;;;1.00;;
5121;SDS011;2563;52.242;7.956;2022-12-29T17:26:51;8.10;;;1.50;;
5121;SDS011;2563;52.242;7.956;2022-12-29T17:29:38;8.13;;;1.43;;
5121;SDS011;2563;52.242;7.956;2022-12-29T17:32:08;7.70;;;1.10;;
5121;SDS011;2563;52.242;7.956;2022-12-29T17:34:37;14.03;;;1.77;;
5121;SDS011;2563;52.242;7.956;2022-12-29T17:37:08;6.60;;;1.10;;
5121;SDS011;2563;52.242;7.956;2022-12-29T17:39:48;5.87;;;1.53;;
5121;SDS011;2563;52.242;7.956;2022-12-29T17:42:14;10.43;;;1.60;;
5121;SDS011;2563;52.242;7.956;2022-12-29T17:44:40;5.23;;;1.10;;
5121;SDS011;2563;52.242;7.956;2022-12-29T17:47:07;5.93;;;1.30;;
5121;SDS011;2563;52.242;7.956;2022-12-29T17:49:35;6.70;;;1.00;;
5121;SDS011;2563;52.242;7.956;2022-12-29T17:52:00;5.37;;;1.20;;
5121;SDS011;2563;52.242;7.956;2022-12-29T17:54:26;10.10;;;1.57;;
5121;SDS011;2563;52.242;7.956;2022-12-29T17:56:51;6.13;;;1.53;;
5121;SDS011;2563;52.242;7.956;2022-12-29T17:59:17;10.47;;;1.60;;
5121;SDS011;2563;52.242;7.956;2022-12-29T18:01:43;10.60;;;1.67;;
5121;SDS011;2563;52.242;7.956;2022-12-29T18:04:14;5.87;;;1.27;;
5121;SDS011;2563;52.242;7.956;2022-12-29T18:06:44;5.20;;;1.60;;
5121;SDS011;2563;52.242;7.956;2022-12-29T18:09:10;8.67;;;2.27;;
5121;SDS011;2563;52.242;7.956;2022-12-29T18:11:37;9.67;;;1.30;;
5121;SDS011;2563;52.242;7.956;2022-12-29T18:14:04;5.40;;;1.50;;
5121;SDS011;2563;52.242;7.956;2022-12-29T18:16:35;5.97;;;1.60;;
5121;SDS011;2563;52.242;7.956;2022-12-29T18:19:01;10.57;;;1.80;;
5121;SDS011;2563;52.242;7.956;2022-12-29T18:21:26;6.40;;;1.20;;
5121;SDS011;2563;52.242;7.956;2022-12-29T18:23:51;6.40;;;1.30;;
5121;SDS011;2563;52.242;7.956;2022-12-29T18:26:18;6.60;;;1.10;;
5121;SDS011;2563;52.242;7.956;2022-12-29T18:28:46;11.13;;;1.30;;
5121;SDS011;2563;52.242;7.956;2022-12-29T18:33:45;3.80;;;1.30;;
5121;SDS011;2563;52.242;7.956;2022-12-29T18:36:11;9.63;;;1.07;;
5121;SDS011;2563;52.242;7.956;2022-12-29T18:38:37;6.67;;;1.17;;
5121;SDS011;2563;52.242;7.956;2022-12-29T18:41:02;6.27;;;2.57;;